Flight Track Log - Related Links

Times and Time Zones

All times are in EDT time to prevent confusion due to time zone crossing. See the HDA802 flight status page for this flight to view local times or setup timezone preferences in your user account.

Time Position Orientation Groundspeed Altitude Reporting Facility
EDT Latitude Longitude Course Direction KTS MPH feet Rate Location/Type
Tue 08:19:32 PM 23.7801 115.1222 37° Northeast  Level Estimated
Tue 08:20:32 PM 23.8452 115.1764 37° Northeast  Level Estimated
Tue 08:21:32 PM 23.9103 115.2307 37° Northeast  Level Estimated
Tue 08:22:32 PM 23.9753 115.2850 37° Northeast  Level Estimated
Tue 08:23:32 PM 24.0403 115.3394 37° Northeast  Level Estimated
Tue 08:24:32 PM 24.1053 115.3939 37° Northeast  Level Estimated
Tue 08:25:32 PM 24.1703 115.4483 37° Northeast  Level Estimated
Tue 08:26:32 PM 24.2353 115.5029 37° Northeast  Level Estimated
Tue 08:27:32 PM 24.3002 115.5575 37° Northeast  Level Estimated
Tue 08:28:32 PM 24.3651 115.6121 38° Northeast  Level Estimated
Tue 08:29:32 PM 24.4300 115.6668 38° Northeast  Level Estimated
Tue 08:30:32 PM 24.4949 115.7216 38° Northeast  Level Estimated
Tue 08:31:32 PM 24.5598 115.7764 38° Northeast  Level Estimated
Tue 08:32:32 PM 24.6246 115.8313 38° Northeast  Level Estimated
Tue 08:33:32 PM 24.6894 115.8863 38° Northeast  Level Estimated
Tue 08:34:32 PM 24.7542 115.9413 38° Northeast  Level Estimated
Tue 08:35:32 PM 24.8190 115.9963 38° Northeast  Level Estimated
Tue 08:36:32 PM 24.8838 116.0514 38° Northeast  Level Estimated
Tue 08:37:32 PM 24.9485 116.1066 38° Northeast  Level Estimated
Tue 08:38:32 PM 25.0132 116.1618 38° Northeast  Level Estimated
Tue 08:39:32 PM 25.0779 116.2171 38° Northeast  Level Estimated
Tue 08:40:32 PM 25.1426 116.2724 38° Northeast  Level Estimated
Tue 08:41:32 PM 25.2073 116.3278 38° Northeast  Level Estimated
Tue 08:42:32 PM 25.2719 116.3833 38° Northeast  Level Estimated
Tue 08:43:32 PM 25.3365 116.4388 38° Northeast  Level Estimated
Tue 08:44:32 PM 25.4011 116.4944 38° Northeast  Level Estimated
Tue 08:45:32 PM 25.4657 116.5500 38° Northeast  Level Estimated
Tue 08:46:32 PM 25.5303 116.6057 38° Northeast  Level Estimated
Tue 08:47:32 PM 25.5948 116.6615 38° Northeast  Level Estimated
Tue 08:48:32 PM 25.6593 116.7173 38° Northeast  Level Estimated
Tue 08:49:32 PM 25.7238 116.7732 38° Northeast  Level Estimated
Tue 08:50:32 PM 25.7883 116.8291 38° Northeast  Level Estimated
Tue 08:51:32 PM 25.8527 116.8851 38° Northeast  Level Estimated
Tue 08:52:32 PM 25.9172 116.9412 38° Northeast  Level Estimated
Tue 08:53:32 PM 25.9816 116.9973 38° Northeast  Level Estimated
Tue 08:54:32 PM 26.0459 117.0535 38° Northeast  Level Estimated
Tue 08:55:32 PM 26.1103 117.1098 38° Northeast  Level Estimated
Tue 08:56:32 PM 26.1747 117.1661 38° Northeast  Level Estimated
Tue 08:57:32 PM 26.2390 117.2224 38° Northeast  Level Estimated
Tue 08:58:32 PM 26.3033 117.2789 38° Northeast  Level Estimated
Tue 08:59:32 PM 26.3675 117.3354 38° Northeast  Level Estimated
Tue 09:00:32 PM 26.4318 117.3919 38° Northeast  Level Estimated
Tue 09:01:32 PM 26.4960 117.4485 38° Northeast  Level Estimated
Tue 09:02:32 PM 26.5602 117.5052 38° Northeast  Level Estimated
Tue 09:03:32 PM 26.6244 117.5620 38° Northeast  Level Estimated
Tue 09:04:32 PM 26.6886 117.6188 38° Northeast  Level Estimated
Tue 09:05:32 PM 26.7527 117.6757 38° Northeast  Level Estimated
Tue 09:06:32 PM 26.8169 117.7326 38° Northeast  Level Estimated
Tue 09:07:32 PM 26.8810 117.7896 38° Northeast  Level Estimated
Tue 09:08:32 PM 26.9450 117.8467 38° Northeast  Level Estimated
Tue 09:09:32 PM 27.0091 117.9038 38° Northeast  Level Estimated
Tue 09:10:32 PM 27.0731 117.9610 39° Northeast  Level Estimated
Tue 09:11:32 PM 27.1371 118.0183 39° Northeast  Level Estimated
Tue 09:12:32 PM 27.2011 118.0756 39° Northeast  Level Estimated
Tue 09:13:32 PM 27.2650 118.1330 39° Northeast  Level Estimated
Tue 09:14:32 PM 27.3290 118.1905 39° Northeast  Level Estimated
Tue 09:15:32 PM 27.3929 118.2480 39° Northeast  Level Estimated
Tue 09:16:32 PM 27.4568 118.3056 39° Northeast  Level Estimated
Tue 09:17:32 PM 27.5206 118.3633 39° Northeast  Level Estimated
Tue 09:18:32 PM 27.5845 118.4210 39° Northeast  Level Estimated
Tue 09:19:32 PM 27.6483 118.4788 39° Northeast  Level Estimated
Tue 09:20:32 PM 27.7121 118.5367 39° Northeast  Level Estimated
Tue 09:21:32 PM 27.7759 118.5946 39° Northeast  Level Estimated
Tue 09:22:32 PM 27.8396 118.6526 39° Northeast  Level Estimated
Tue 09:23:32 PM 27.9033 118.7106 39° Northeast  Level Estimated
Tue 09:24:32 PM 27.9670 118.7688 39° Northeast  Level Estimated
Tue 09:25:32 PM 28.0307 118.8270 39° Northeast  Level Estimated
Tue 09:26:32 PM 28.0943 118.8853 39° Northeast  Level Estimated
Tue 09:27:32 PM 28.1579 118.9436 39° Northeast  Level Estimated
Tue 09:28:32 PM 28.2215 119.0020 39° Northeast  Level Estimated
Tue 09:29:32 PM 28.2851 119.0605 39° Northeast  Level Estimated
Tue 09:30:32 PM 28.3487 119.1190 39° Northeast  Level Estimated
Tue 09:31:32 PM 28.4122 119.1777 39° Northeast  Level Estimated
Tue 09:32:32 PM 28.4757 119.2364 39° Northeast  Level Estimated
Tue 09:33:32 PM 28.5392 119.2951 39° Northeast  Level Estimated
Tue 09:34:32 PM 28.6026 119.3540 39° Northeast  Level Estimated
Tue 09:35:32 PM 28.6660 119.4128 39° Northeast  Level Estimated
Tue 09:36:32 PM 28.7294 119.4718 39° Northeast  Level Estimated
Tue 09:37:32 PM 28.7928 119.5309 39° Northeast  Level Estimated
Tue 09:38:32 PM 28.8561 119.5900 39° Northeast  Level Estimated
Tue 09:39:32 PM 28.9194 119.6492 39° Northeast  Level Estimated
Tue 09:40:32 PM 28.9827 119.7084 39° Northeast  Level Estimated
Tue 09:41:32 PM 29.0460 119.7678 39° Northeast  Level Estimated
Tue 09:42:32 PM 29.1092 119.8272 39° Northeast  Level Estimated
Tue 09:43:32 PM 29.1724 119.8867 39° Northeast  Level Estimated
Tue 09:44:32 PM 29.2356 119.9462 39° Northeast  Level Estimated
Tue 09:45:32 PM 29.2988 120.0058 39° Northeast  Level Estimated
Tue 09:46:32 PM 29.3619 120.0655 40° Northeast  Level Estimated
Tue 09:47:32 PM 29.4250 120.1253 40° Northeast  Level Estimated
Tue 09:48:32 PM 29.4881 120.1852 40° Northeast  Level Estimated
Tue 09:49:32 PM 29.5512 120.2451 40° Northeast  Level Estimated
Tue 09:50:32 PM 29.6142 120.3051 40° Northeast  Level Estimated
Tue 09:51:32 PM 29.6772 120.3652 40° Northeast  Level Estimated
Tue 09:52:32 PM 29.7402 120.4253 40° Northeast  Level Estimated
Tue 09:53:32 PM 29.8031 120.4855 40° Northeast  Level Estimated
Tue 09:54:32 PM 29.8660 120.5458 40° Northeast  Level Estimated
Tue 09:55:32 PM 29.9289 120.6062 40° Northeast  Level Estimated
Tue 09:56:32 PM 29.9918 120.6667 40° Northeast  Level Estimated
Tue 09:57:32 PM 30.0546 120.7272 40° Northeast  Level Estimated
Tue 09:58:32 PM 30.1174 120.7878 40° Northeast  Level Estimated
Tue 09:59:32 PM 30.1802 120.8485 40° Northeast  Level Estimated
Tue 10:00:32 PM 30.2430 120.9092 40° Northeast  Level Estimated
Tue 10:01:32 PM 30.3057 120.9701 40° Northeast  Level Estimated
Tue 10:02:32 PM 30.3684 121.0310 40° Northeast  Level Estimated
Tue 10:03:32 PM 30.4310 121.0920 40° Northeast  Level Estimated
Tue 10:04:32 PM 30.4937 121.1531 40° Northeast  Level Estimated
Tue 10:05:32 PM 30.5563 121.2142 40° Northeast  Level Estimated
Tue 10:06:32 PM 30.6189 121.2755 40° Northeast  Level Estimated
Tue 10:07:32 PM 30.6814 121.3368 40° Northeast  Level Estimated
Tue 10:08:32 PM 30.7439 121.3982 40° Northeast  Level Estimated
Tue 10:09:32 PM 30.8064 121.4596 40° Northeast  Level Estimated
Tue 10:10:32 PM 30.8689 121.5212 40° Northeast  Level Estimated
Tue 10:11:32 PM 30.9313 121.5828 40° Northeast  Level Estimated
Tue 10:12:32 PM 30.9937 121.6445 40° Northeast  Level Estimated
Tue 10:13:32 PM 31.0561 121.7063 40° Northeast  Level Estimated
Tue 10:14:32 PM 31.1185 121.7682 40° Northeast  Level Estimated
Tue 10:15:32 PM 31.1808 121.8301 220° Southwest  Level Estimated
Tue 10:16:32 PM 31.1185 121.7682 40° Northeast  Level Estimated
Tue 10:17:32 PM 31.1808 121.8301 220° Southwest  Level Estimated
Tue 10:18:32 PM 31.1185 121.7682 40° Northeast  Level Estimated
Tue 10:19:32 PM 31.1808 121.8301 220° Southwest  Level Estimated
Tue 10:20:32 PM 31.1185 121.7682 40° Northeast  Level Estimated
Tue 10:21:32 PM 31.1808 121.8301 220° Southwest  Level Estimated
Tue 10:22:32 PM 31.1171 121.7668 40° Northeast  Level Estimated
Tue 10:23:32 PM 31.1808 121.8301 220° Southwest  Level Estimated
Tue 10:24:32 PM 31.1171 121.7668 40° Northeast  Level Estimated
Tue 10:25:32 PM 31.1808 121.8301 220° Southwest  Level Estimated
Tue 10:26:32 PM 31.1171 121.7668 40° Northeast  Level Estimated
Tue 10:27:32 PM 31.1808 121.8301 40° Northeast  Level Estimated

Login

Don't have an account? Register now (free) for customized features, flight alerts, and more!